Darstellungsparameter: Aktuell verwendete Einstellungen:
Skalierung der Graphiken ... ?
xyx+y,   Skalierungsfaktor:      Skalierung: Modus: x, Faktor: 1
Darstellungszeitraum ... ?
Vom - - bis: - -   Zeitraum: 06.07.2020 - 08.07.2020
Min/Max/Avg-Anzeige ... ?
Zeige MMA aktuell
Zeige MMA Monat
Zeige MMA alles
Zeige --A aktuell
Zeige --A Monat
Zeige --A alles
Keine MMA-Anzeige
MMA:
Average (ber die Originaldaten)
MMA-Basis: 06.07.2020 - 08.07.2020
Quicknavigation für Darstellung... ?
Tage:      1T, 2T, 3T, 5T -1T -2T -3T -5T +1T +2T +3T +5T
Wochen: 1W, 2W, 3W -1W -2W -3W +1W +2W +3W
Monate: 1M, 3M, 6M -1M -3M -6M +1M +3M +6M
Jahre:    1J, 3J, 5J, 10J -1J -3J -5J -10J +1J +3J +5J +10J
Nutze für die Darstellung ... ?
Originaldaten oder Mittelwerte auf ...
Stundenbasis Tagesbasis Wochenbasis
Monatsbasis Jahresbasis      Datenbasis: Original-Daten
Darstellen als:
Statistik (Auto) Statistik J:M      Darstellung:
Zur Graphik,    zurück zur Übersicht aller Sensoren.
 
Tabellarische Datenbersicht: ?
 
Sensor: Nr:Datum:Temp:Abs-Feuchte:Windchill:Wind:
Aussen-T/F 1 06-07-2020 00:00:00 19.8 C 13.84 g/m*3 19.8 C 8.1 km/h
2 06-07-2020 00:05:00 19.7 C 13.92 g/m*3 19.7 C 3.2 km/h
3 06-07-2020 00:10:00 19.7 C 14.09 g/m*3 19.7 C 1.6 km/h
4 06-07-2020 00:15:00 19.6 C 14.01 g/m*3 19.6 C 1.6 km/h
5 06-07-2020 00:20:00 19.6 C 14.01 g/m*3 19.6 C 6.4 km/h
6 06-07-2020 00:25:00 19.6 C 14.01 g/m*3 19.6 C 3.2 km/h
7 06-07-2020 00:30:00 19.6 C 14.01 g/m*3 19.6 C 0 km/h
8 06-07-2020 00:35:00 19.5 C 13.93 g/m*3 19.5 C 6.4 km/h
9 06-07-2020 00:40:00 19.4 C 13.85 g/m*3 19.4 C 3.2 km/h
10 06-07-2020 00:45:00 19.3 C 13.93 g/m*3 19.3 C 3.2 km/h
11 06-07-2020 00:50:00 19.3 C 13.93 g/m*3 19.3 C 1.6 km/h
12 06-07-2020 00:55:00 19.2 C 13.85 g/m*3 19.2 C 0 km/h
13 06-07-2020 01:00:00 19.2 C 13.85 g/m*3 19.2 C 0 km/h
14 06-07-2020 01:05:00 19.1 C 13.93 g/m*3 19.1 C 1.6 km/h
15 06-07-2020 01:10:00 19 C 13.85 g/m*3 19 C 0 km/h
16 06-07-2020 01:15:00 18.9 C 13.77 g/m*3 18.9 C 3.2 km/h
17 06-07-2020 01:20:00 18.9 C 13.93 g/m*3 18.9 C 4.8 km/h
18 06-07-2020 01:25:00 18.9 C 13.61 g/m*3 18.9 C 11.3 km/h
19 06-07-2020 01:30:00 19.3 C 13.27 g/m*3 19.3 C 12.9 km/h
20 06-07-2020 01:35:00 19.7 C 13.41 g/m*3 19.7 C 9.7 km/h
21 06-07-2020 01:40:00 19.8 C 12.81 g/m*3 19.8 C 14.5 km/h
22 06-07-2020 01:45:00 19.9 C 12.71 g/m*3 19.9 C 20.9 km/h
23 06-07-2020 01:50:00 19.9 C 12.54 g/m*3 19.9 C 20.9 km/h
24 06-07-2020 01:55:00 19.8 C 12.47 g/m*3 19.8 C 12.9 km/h
25 06-07-2020 02:00:00 19.7 C 12.57 g/m*3 19.7 C 9.7 km/h
Sensor: Nr:Datum:Temp:Abs-Feuchte:Windchill:Wind:
Aussen-T/F 26 06-07-2020 02:05:00 19.4 C 12.35 g/m*3 19.4 C 9.7 km/h
27 06-07-2020 02:10:00 19.3 C 12.27 g/m*3 19.3 C 9.7 km/h
28 06-07-2020 02:15:00 19.2 C 12.2 g/m*3 19.2 C 11.3 km/h
29 06-07-2020 02:20:00 19.1 C 12.29 g/m*3 19.1 C 8.1 km/h
30 06-07-2020 02:25:00 19.1 C 12.29 g/m*3 19.1 C 9.7 km/h
31 06-07-2020 02:30:00 19 C 12.22 g/m*3 19 C 8.1 km/h
32 06-07-2020 02:35:00 18.8 C 11.92 g/m*3 18.8 C 14.5 km/h
33 06-07-2020 02:40:00 18.7 C 11.05 g/m*3 18.7 C 11.3 km/h
34 06-07-2020 02:45:00 18.6 C 10.35 g/m*3 18.6 C 12.9 km/h
35 06-07-2020 02:50:00 18.4 C 9.91 g/m*3 18.4 C 9.7 km/h
36 06-07-2020 02:55:00 18.3 C 9.85 g/m*3 18.3 C 9.7 km/h
37 06-07-2020 03:00:00 18.3 C 10.16 g/m*3 18.3 C 6.4 km/h
38 06-07-2020 03:05:00 18.1 C 10.2 g/m*3 18.1 C 11.3 km/h
39 06-07-2020 03:10:00 18 C 10.14 g/m*3 18 C 12.9 km/h
40 06-07-2020 03:15:00 17.8 C 9.41 g/m*3 17.8 C 12.9 km/h
41 06-07-2020 03:20:00 17.6 C 8.85 g/m*3 17.6 C 24.1 km/h
42 06-07-2020 03:25:00 17.2 C 8.49 g/m*3 17.2 C 24.1 km/h
43 06-07-2020 03:30:00 16.9 C 8.34 g/m*3 16.9 C 19.3 km/h
44 06-07-2020 03:35:00 16.6 C 8.33 g/m*3 16.6 C 22.5 km/h
45 06-07-2020 03:40:00 16.4 C 8.23 g/m*3 16.4 C 19.3 km/h
46 06-07-2020 03:45:00 16.3 C 8.32 g/m*3 16.3 C 17.7 km/h
47 06-07-2020 03:50:00 16.1 C 8.5 g/m*3 16.1 C 14.5 km/h
48 06-07-2020 03:55:00 15.9 C 8.4 g/m*3 15.9 C 9.7 km/h
49 06-07-2020 04:00:00 15.8 C 8.48 g/m*3 15.8 C 8.1 km/h
50 06-07-2020 04:05:00 15.7 C 8.7 g/m*3 15.7 C 4.8 km/h
Sensor: Nr:Datum:Temp:Abs-Feuchte:Windchill:Wind:
Aussen-T/F 51 06-07-2020 04:10:00 15.6 C 8.78 g/m*3 15.6 C 3.2 km/h
52 06-07-2020 04:15:00 15.3 C 8.75 g/m*3 15.3 C 11.3 km/h
53 06-07-2020 04:20:00 15.1 C 8.64 g/m*3 15.1 C 14.5 km/h
54 06-07-2020 04:25:00 14.9 C 8.67 g/m*3 14.9 C 3.2 km/h
55 06-07-2020 04:30:00 14.8 C 8.74 g/m*3 14.8 C 3.2 km/h
56 06-07-2020 04:35:00 14.6 C 8.63 g/m*3 14.6 C 6.4 km/h
57 06-07-2020 04:40:00 14.5 C 8.71 g/m*3 14.5 C 3.2 km/h
58 06-07-2020 04:45:00 14.3 C 8.6 g/m*3 14.3 C 9.7 km/h
59 06-07-2020 04:50:00 14.2 C 8.67 g/m*3 14.2 C 6.4 km/h
60 06-07-2020 04:55:00 14.1 C 8.62 g/m*3 14.1 C 12.9 km/h
61 06-07-2020 05:00:00 14.1 C 8.74 g/m*3 14.1 C 9.7 km/h
62 06-07-2020 05:05:00 14 C 8.56 g/m*3 14 C 8.1 km/h
63 06-07-2020 05:10:00 13.9 C 8.63 g/m*3 13.9 C 1.6 km/h
64 06-07-2020 05:15:00 13.8 C 8.7 g/m*3 13.8 C 1.6 km/h
65 06-07-2020 05:20:00 13.7 C 8.64 g/m*3 13.7 C 0 km/h
66 06-07-2020 05:25:00 13.6 C 8.71 g/m*3 13.6 C 0 km/h
67 06-07-2020 05:30:00 13.4 C 8.6 g/m*3 13.4 C 4.8 km/h
68 06-07-2020 05:35:00 13.3 C 8.55 g/m*3 13.3 C 3.2 km/h
69 06-07-2020 05:40:00 13.3 C 8.66 g/m*3 13.3 C 3.2 km/h
70 06-07-2020 05:45:00 13.2 C 8.61 g/m*3 13.2 C 3.2 km/h
71 06-07-2020 05:50:00 13.2 C 8.61 g/m*3 13.2 C 3.2 km/h
72 06-07-2020 05:55:00 13.2 C 8.61 g/m*3 13.2 C 8.1 km/h
73 06-07-2020 06:00:00 13.2 C 8.73 g/m*3 13.2 C 1.6 km/h
74 06-07-2020 06:05:00 13.1 C 8.67 g/m*3 13.1 C 4.8 km/h
75 06-07-2020 06:10:00 13.1 C 8.67 g/m*3 13.1 C 6.4 km/h
Sensor: Nr:Datum:Temp:Abs-Feuchte:Windchill:Wind:
Aussen-T/F 76 06-07-2020 06:15:00 12.9 C 8.68 g/m*3 12.9 C 3.2 km/h
77 06-07-2020 06:20:00 12.9 C 8.68 g/m*3 12.9 C 6.4 km/h
78 06-07-2020 06:25:00 12.9 C 8.79 g/m*3 12.9 C 1.6 km/h
79 06-07-2020 06:30:00 12.8 C 8.74 g/m*3 12.8 C 1.6 km/h
80 06-07-2020 06:35:00 12.8 C 8.74 g/m*3 12.8 C 4.8 km/h
81 06-07-2020 06:40:00 12.8 C 8.74 g/m*3 12.8 C 6.4 km/h
82 06-07-2020 06:45:00 12.9 C 8.79 g/m*3 12.9 C 6.4 km/h
83 06-07-2020 06:50:00 13 C 8.85 g/m*3 13 C 4.8 km/h
84 06-07-2020 06:55:00 13.1 C 8.9 g/m*3 13.1 C 8.1 km/h
85 06-07-2020 07:00:00 13.2 C 8.96 g/m*3 13.2 C 3.2 km/h
86 06-07-2020 07:05:00 13.4 C 8.95 g/m*3 13.4 C 4.8 km/h
87 06-07-2020 07:10:00 13.6 C 9.06 g/m*3 13.6 C 6.4 km/h
88 06-07-2020 07:15:00 13.7 C 9 g/m*3 13.7 C 9.7 km/h
89 06-07-2020 07:20:00 14 C 9.05 g/m*3 14 C 9.7 km/h
90 06-07-2020 07:25:00 14.2 C 9.16 g/m*3 14.2 C 6.4 km/h
91 06-07-2020 07:30:00 14.2 C 9.16 g/m*3 14.2 C 8.1 km/h
92 06-07-2020 07:35:00 14.3 C 9.09 g/m*3 14.3 C 11.3 km/h
93 06-07-2020 07:40:00 14.3 C 9.09 g/m*3 14.3 C 11.3 km/h
94 06-07-2020 07:45:00 14.4 C 9.02 g/m*3 14.4 C 14.5 km/h
95 06-07-2020 07:50:00 14.6 C 9.13 g/m*3 14.6 C 8.1 km/h
96 06-07-2020 07:55:00 14.7 C 9.19 g/m*3 14.7 C 9.7 km/h
97 06-07-2020 08:00:00 14.8 C 8.87 g/m*3 14.8 C 16.1 km/h
98 06-07-2020 08:05:00 14.9 C 8.92 g/m*3 14.9 C 19.3 km/h
99 06-07-2020 08:10:00 15 C 9.1 g/m*3 15 C 8.1 km/h
100 06-07-2020 08:15:00 15.1 C 8.9 g/m*3 15.1 C 11.3 km/h
Sensor: Nr:Datum:Temp:Abs-Feuchte:Windchill:Wind:
Aussen-T/F 101 06-07-2020 08:20:00 15.1 C 8.9 g/m*3 15.1 C 9.7 km/h
102 06-07-2020 08:25:00 15.1 C 8.77 g/m*3 15.1 C 16.1 km/h
103 06-07-2020 08:30:00 15.1 C 8.64 g/m*3 15.1 C 16.1 km/h
104 06-07-2020 08:35:00 15.2 C 8.57 g/m*3 15.2 C 11.3 km/h
105 06-07-2020 08:40:00 15.3 C 8.62 g/m*3 15.3 C 12.9 km/h
106 06-07-2020 08:45:00 15.4 C 8.67 g/m*3 15.4 C 12.9 km/h
107 06-07-2020 08:50:00 15.3 C 8.49 g/m*3 15.3 C 17.7 km/h
108 06-07-2020 08:55:00 15.3 C 8.62 g/m*3 15.3 C 14.5 km/h
109 06-07-2020 09:00:00 15.4 C 8.67 g/m*3 15.4 C 8.1 km/h
110 06-07-2020 09:05:00 15.4 C 8.54 g/m*3 15.4 C 8.1 km/h
111 06-07-2020 09:10:00 15.5 C 8.33 g/m*3 15.5 C 12.9 km/h
112 06-07-2020 09:15:00 15.6 C 8.51 g/m*3 15.6 C 11.3 km/h
113 06-07-2020 09:20:00 15.8 C 8.35 g/m*3 15.8 C 11.3 km/h
114 06-07-2020 09:25:00 16 C 8.31 g/m*3 16 C 17.7 km/h
115 06-07-2020 09:30:00 15.9 C 8.53 g/m*3 15.9 C 19.3 km/h
116 06-07-2020 09:35:00 16.1 C 8.64 g/m*3 16.1 C 17.7 km/h
117 06-07-2020 09:40:00 16.1 C 8.36 g/m*3 16.1 C 19.3 km/h
118 06-07-2020 09:45:00 16.1 C 8.22 g/m*3 16.1 C 16.1 km/h
119 06-07-2020 09:50:00 16.1 C 8.22 g/m*3 16.1 C 17.7 km/h
120 06-07-2020 09:55:00 16.1 C 8.09 g/m*3 16.1 C 16.1 km/h
121 06-07-2020 10:00:00 16.2 C 8.41 g/m*3 16.2 C 11.3 km/h
122 06-07-2020 10:05:00 16.3 C 8.32 g/m*3 16.3 C 16.1 km/h
123 06-07-2020 10:10:00 16.4 C 8.37 g/m*3 16.4 C 12.9 km/h
124 06-07-2020 10:15:00 16.5 C 8.28 g/m*3 16.5 C 17.7 km/h
125 06-07-2020 10:20:00 16.8 C 8.29 g/m*3 16.8 C 17.7 km/h
Sensor: Nr:Datum:Temp:Abs-Feuchte:Windchill:Wind:
Aussen-T/F 126 06-07-2020 10:25:00 17.2 C 8.35 g/m*3 17.2 C 11.3 km/h
127 06-07-2020 10:30:00 17.3 C 8.25 g/m*3 17.3 C 14.5 km/h
128 06-07-2020 10:35:00 17.4 C 8.6 g/m*3 17.4 C 9.7 km/h
129 06-07-2020 10:40:00 17.6 C 8.55 g/m*3 17.6 C 11.3 km/h
130 06-07-2020 10:45:00 17.6 C 8.25 g/m*3 17.6 C 16.1 km/h
131 06-07-2020 10:50:00 17.4 C 8.45 g/m*3 17.4 C 16.1 km/h
132 06-07-2020 10:55:00 17.6 C 8.4 g/m*3 17.6 C 14.5 km/h
133 06-07-2020 11:00:00 17.8 C 8.04 g/m*3 17.8 C 16.1 km/h
134 06-07-2020 11:05:00 17.7 C 8 g/m*3 17.7 C 17.7 km/h
135 06-07-2020 11:10:00 18 C 8.45 g/m*3 18 C 19.3 km/h
136 06-07-2020 11:15:00 18.1 C 8.34 g/m*3 18.1 C 22.5 km/h
137 06-07-2020 11:20:00 18.3 C 8.13 g/m*3 18.3 C 16.1 km/h
138 06-07-2020 11:25:00 18.4 C 8.02 g/m*3 18.4 C 12.9 km/h
139 06-07-2020 11:30:00 18.4 C 8.02 g/m*3 18.4 C 20.9 km/h
140 06-07-2020 11:35:00 18.3 C 8.13 g/m*3 18.3 C 22.5 km/h
141 06-07-2020 11:40:00 18.2 C 8.08 g/m*3 18.2 C 16.1 km/h
142 06-07-2020 11:45:00 18.1 C 8.34 g/m*3 18.1 C 14.5 km/h
143 06-07-2020 11:50:00 18.2 C 8.08 g/m*3 18.2 C 19.3 km/h
144 06-07-2020 11:55:00 18.4 C 8.18 g/m*3 18.4 C 19.3 km/h
145 06-07-2020 12:00:00 18.5 C 8.39 g/m*3 18.5 C 16.1 km/h
146 06-07-2020 12:05:00 18.6 C 8.12 g/m*3 18.6 C 16.1 km/h
147 06-07-2020 12:10:00 18.6 C 7.96 g/m*3 18.6 C 17.7 km/h
148 06-07-2020 12:15:00 18.7 C 7.84 g/m*3 18.7 C 19.3 km/h
149 06-07-2020 12:20:00 18.8 C 7.89 g/m*3 18.8 C 19.3 km/h
150 06-07-2020 12:25:00 18.9 C 7.78 g/m*3 18.9 C 12.9 km/h
Sensor: Nr:Datum:Temp:Abs-Feuchte:Windchill:Wind:
Aussen-T/F 151 06-07-2020 12:30:00 19 C 7.82 g/m*3 19 C 27.4 km/h
152 06-07-2020 12:35:00 19 C 7.82 g/m*3 19 C 16.1 km/h
153 06-07-2020 12:40:00 18.9 C 8.1 g/m*3 18.9 C 14.5 km/h
154 06-07-2020 12:45:00 18.9 C 8.1 g/m*3 18.9 C 12.9 km/h
155 06-07-2020 12:50:00 18.9 C 7.78 g/m*3 18.9 C 20.9 km/h
156 06-07-2020 12:55:00 18.9 C 7.94 g/m*3 18.9 C 14.5 km/h
157 06-07-2020 13:00:00 18.8 C 8.05 g/m*3 18.8 C 22.5 km/h
158 06-07-2020 13:05:00 18.9 C 8.1 g/m*3 18.9 C 19.3 km/h
159 06-07-2020 13:10:00 19.2 C 8.08 g/m*3 19.2 C 9.7 km/h
160 06-07-2020 13:15:00 19.5 C 8.22 g/m*3 19.5 C 16.1 km/h
161 06-07-2020 13:20:00 19.6 C 7.77 g/m*3 19.6 C 16.1 km/h
162 06-07-2020 13:25:00 19.4 C 7.84 g/m*3 19.4 C 14.5 km/h
163 06-07-2020 13:30:00 19.4 C 7.84 g/m*3 19.4 C 16.1 km/h
164 06-07-2020 13:35:00 19.4 C 7.67 g/m*3 19.4 C 14.5 km/h
165 06-07-2020 13:40:00 19.3 C 7.96 g/m*3 19.3 C 16.1 km/h
166 06-07-2020 13:45:00 19.2 C 7.91 g/m*3 19.2 C 16.1 km/h
167 06-07-2020 13:50:00 19.3 C 7.96 g/m*3 19.3 C 11.3 km/h
168 06-07-2020 13:55:00 19.3 C 7.8 g/m*3 19.3 C 11.3 km/h
169 06-07-2020 14:00:00 19.3 C 7.96 g/m*3 19.3 C 12.9 km/h
170 06-07-2020 14:05:00 19.2 C 7.91 g/m*3 19.2 C 12.9 km/h
171 06-07-2020 14:10:00 19.2 C 7.59 g/m*3 19.2 C 17.7 km/h
172 06-07-2020 14:15:00 19.3 C 7.63 g/m*3 19.3 C 14.5 km/h
173 06-07-2020 14:20:00 19.4 C 7.67 g/m*3 19.4 C 17.7 km/h
174 06-07-2020 14:25:00 19.7 C 7.47 g/m*3 19.7 C 17.7 km/h
175 06-07-2020 14:30:00 20 C 7.6 g/m*3 20 C 19.3 km/h
Sensor: Nr:Datum:Temp:Abs-Feuchte:Windchill:Wind:
Aussen-T/F 176 06-07-2020 14:35:00 20.4 C 7.43 g/m*3 20.4 C 24.1 km/h
177 06-07-2020 14:40:00 20.6 C 7.87 g/m*3 20.6 C 20.9 km/h
178 06-07-2020 14:45:00 20.8 C 7.97 g/m*3 20.8 C 14.5 km/h
179 06-07-2020 14:50:00 20.8 C 7.6 g/m*3 20.8 C 16.1 km/h
180 06-07-2020 14:55:00 20.4 C 7.78 g/m*3 20.4 C 14.5 km/h
181 06-07-2020 15:00:00 20.1 C 7.65 g/m*3 20.1 C 14.5 km/h
182 06-07-2020 15:05:00 19.8 C 7.69 g/m*3 19.8 C 16.1 km/h
183 06-07-2020 15:10:00 19.7 C 7.3 g/m*3 19.7 C 12.9 km/h
184 06-07-2020 15:15:00 19.5 C 7.72 g/m*3 19.5 C 16.1 km/h
185 06-07-2020 15:20:00 18.6 C 9.71 g/m*3 18.6 C 24.1 km/h
186 06-07-2020 15:25:00 17.4 C 9.93 g/m*3 17.4 C 19.3 km/h
187 06-07-2020 15:30:00 16.4 C 9.77 g/m*3 16.4 C 12.9 km/h
188 06-07-2020 15:35:00 16 C 10.22 g/m*3 16 C 8.1 km/h
189 06-07-2020 15:40:00 15.9 C 10.29 g/m*3 15.9 C 4.8 km/h
190 06-07-2020 15:45:00 15.9 C 10.43 g/m*3 15.9 C 8.1 km/h
191 06-07-2020 15:50:00 15.9 C 10.43 g/m*3 15.9 C 8.1 km/h
192 06-07-2020 15:55:00 15.8 C 10.23 g/m*3 15.8 C 9.7 km/h
193 06-07-2020 16:00:00 15.7 C 10.44 g/m*3 15.7 C 6.4 km/h
194 06-07-2020 16:05:00 15.7 C 10.57 g/m*3 15.7 C 6.4 km/h
195 06-07-2020 16:10:00 15.6 C 10.37 g/m*3 15.6 C 4.8 km/h
196 06-07-2020 16:15:00 15.6 C 10.37 g/m*3 15.6 C 0 km/h
197 06-07-2020 16:20:00 15.4 C 10.38 g/m*3 15.4 C 0 km/h
198 06-07-2020 16:25:00 15.4 C 10.38 g/m*3 15.4 C 0 km/h
199 06-07-2020 16:30:00 15.4 C 10.77 g/m*3 15.4 C 0 km/h
200 06-07-2020 16:35:00 15.3 C 10.45 g/m*3 15.3 C 0 km/h
Sensor: Nr:Datum:Temp:Abs-Feuchte:Windchill:Wind:
Aussen-T/F 201 06-07-2020 16:40:00 15.4 C 10.25 g/m*3 15.4 C 0 km/h
202 06-07-2020 16:45:00 16.1 C 10.83 g/m*3 16.1 C 6.4 km/h
203 06-07-2020 16:50:00 17.1 C 10.92 g/m*3 17.1 C 8.1 km/h
204 06-07-2020 16:55:00 17.9 C 10.54 g/m*3 17.9 C 12.9 km/h
205 06-07-2020 17:00:00 18 C 10.44 g/m*3 18 C 6.4 km/h
206 06-07-2020 17:05:00 17.9 C 10.23 g/m*3 17.9 C 6.4 km/h
207 06-07-2020 17:10:00 17.9 C 10.54 g/m*3 17.9 C 4.8 km/h
208 06-07-2020 17:15:00 17.8 C 9.71 g/m*3 17.8 C 14.5 km/h
209 06-07-2020 17:20:00 17.7 C 9.05 g/m*3 17.7 C 8.1 km/h
210 06-07-2020 17:25:00 17.7 C 8.9 g/m*3 17.7 C 11.3 km/h
211 06-07-2020 17:30:00 17.6 C 8.55 g/m*3 17.6 C 19.3 km/h
212 06-07-2020 17:35:00 17.4 C 8.6 g/m*3 17.4 C 14.5 km/h
213 06-07-2020 17:40:00 17.2 C 8.49 g/m*3 17.2 C 17.7 km/h
214 06-07-2020 17:45:00 17.2 C 8.64 g/m*3 17.2 C 8.1 km/h
215 06-07-2020 17:50:00 17.3 C 8.99 g/m*3 17.3 C 11.3 km/h
216 06-07-2020 17:55:00 17.4 C 8.89 g/m*3 17.4 C 9.7 km/h
217 06-07-2020 18:00:00 17.6 C 9.3 g/m*3 17.6 C 8.1 km/h
218 06-07-2020 18:05:00 18.1 C 9.43 g/m*3 18.1 C 9.7 km/h
219 06-07-2020 18:10:00 18.8 C 9.82 g/m*3 18.8 C 8.1 km/h
220 06-07-2020 18:15:00 19.6 C 9.96 g/m*3 19.6 C 12.9 km/h
221 06-07-2020 18:20:00 20.1 C 9.56 g/m*3 20.1 C 12.9 km/h
222 06-07-2020 18:25:00 20.1 C 9.56 g/m*3 20.1 C 12.9 km/h
223 06-07-2020 18:30:00 20.2 C 9.79 g/m*3 20.2 C 12.9 km/h
224 06-07-2020 18:35:00 20.7 C 9.9 g/m*3 20.7 C 9.7 km/h
225 06-07-2020 18:40:00 20.6 C 9.66 g/m*3 20.6 C 11.3 km/h
Sensor: Nr:Datum:Temp:Abs-Feuchte:Windchill:Wind:
Aussen-T/F 226 06-07-2020 18:45:00 20 C 9.68 g/m*3 20 C 9.7 km/h
227 06-07-2020 18:50:00 19.4 C 9.34 g/m*3 19.4 C 27.4 km/h
228 06-07-2020 18:55:00 18.4 C 9.12 g/m*3 18.4 C 30.6 km/h
229 06-07-2020 19:00:00 17.9 C 9.16 g/m*3 17.9 C 12.9 km/h
230 06-07-2020 19:05:00 17.7 C 9.35 g/m*3 17.7 C 9.7 km/h
231 06-07-2020 19:10:00 17.5 C 9.39 g/m*3 17.5 C 11.3 km/h
232 06-07-2020 19:15:00 17.3 C 9.28 g/m*3 17.3 C 12.9 km/h
233 06-07-2020 19:20:00 17 C 9.12 g/m*3 17 C 9.7 km/h
234 06-07-2020 19:25:00 16.8 C 9.15 g/m*3 16.8 C 4.8 km/h
235 06-07-2020 19:30:00 16.7 C 9.24 g/m*3 16.7 C 0 km/h
236 06-07-2020 19:35:00 16.7 C 9.24 g/m*3 16.7 C 1.6 km/h
237 06-07-2020 19:40:00 16.6 C 9.04 g/m*3 16.6 C 0 km/h
238 06-07-2020 19:45:00 16.6 C 9.18 g/m*3 16.6 C 0 km/h
239 06-07-2020 19:50:00 16.6 C 9.18 g/m*3 16.6 C 0 km/h
240 06-07-2020 19:55:00 16.6 C 9.32 g/m*3 16.6 C 0 km/h
241 06-07-2020 20:00:00 16.7 C 9.38 g/m*3 16.7 C 0 km/h
242 06-07-2020 20:05:00 16.8 C 9.58 g/m*3 16.8 C 0 km/h
243 06-07-2020 20:10:00 17.1 C 9.61 g/m*3 17.1 C 0 km/h
244 06-07-2020 20:15:00 17.2 C 9.52 g/m*3 17.2 C 0 km/h
245 06-07-2020 20:20:00 17.2 C 9.52 g/m*3 17.2 C 0 km/h
246 06-07-2020 20:25:00 17.1 C 9.46 g/m*3 17.1 C 4.8 km/h
247 06-07-2020 20:30:00 17.2 C 9.37 g/m*3 17.2 C 6.4 km/h
248 06-07-2020 20:35:00 17.4 C 9.34 g/m*3 17.4 C 9.7 km/h
249 06-07-2020 20:40:00 17.5 C 9.39 g/m*3 17.5 C 0 km/h
250 06-07-2020 20:45:00 17.6 C 9.45 g/m*3 17.6 C 3.2 km/h
Sensor: Nr:Datum:Temp:Abs-Feuchte:Windchill:Wind:
Aussen-T/F 251 06-07-2020 20:50:00 17.7 C 9.51 g/m*3 17.7 C 3.2 km/h
252 06-07-2020 20:55:00 17.7 C 9.35 g/m*3 17.7 C 1.6 km/h
253 06-07-2020 21:00:00 17.6 C 9.45 g/m*3 17.6 C 1.6 km/h
254 06-07-2020 21:05:00 17.5 C 9.39 g/m*3 17.5 C 0 km/h
255 06-07-2020 21:10:00 17.3 C 9.28 g/m*3 17.3 C 0 km/h
256 06-07-2020 21:15:00 17.2 C 9.52 g/m*3 17.2 C 0 km/h
257 06-07-2020 21:20:00 17.1 C 9.61 g/m*3 17.1 C 0 km/h
258 06-07-2020 21:25:00 16.9 C 9.64 g/m*3 16.9 C 0 km/h
259 06-07-2020 21:30:00 16.6 C 9.61 g/m*3 16.6 C 0 km/h
260 06-07-2020 21:35:00 16.3 C 9.43 g/m*3 16.3 C 0 km/h
261 06-07-2020 21:40:00 16.1 C 9.32 g/m*3 16.1 C 6.4 km/h
262 06-07-2020 21:45:00 15.9 C 9.48 g/m*3 15.9 C 4.8 km/h
263 06-07-2020 21:50:00 15.7 C 9.23 g/m*3 15.7 C 0 km/h
264 06-07-2020 21:55:00 15.4 C 9.2 g/m*3 15.4 C 1.6 km/h
265 06-07-2020 22:00:00 15.1 C 9.16 g/m*3 15.1 C 0 km/h
266 06-07-2020 22:05:00 14.8 C 9.12 g/m*3 14.8 C 0 km/h
267 06-07-2020 22:10:00 14.7 C 9.19 g/m*3 14.7 C 1.6 km/h
268 06-07-2020 22:15:00 14.5 C 9.2 g/m*3 14.5 C 3.2 km/h
269 06-07-2020 22:20:00 14.3 C 9.09 g/m*3 14.3 C 0 km/h
270 06-07-2020 22:25:00 14.1 C 9.1 g/m*3 14.1 C 0 km/h
271 06-07-2020 22:30:00 13.9 C 9.11 g/m*3 13.9 C 0 km/h
272 06-07-2020 22:35:00 13.8 C 9.06 g/m*3 13.8 C 1.6 km/h
273 06-07-2020 22:40:00 13.6 C 9.06 g/m*3 13.6 C 0 km/h
274 06-07-2020 22:45:00 13.5 C 9.01 g/m*3 13.5 C 6.4 km/h
275 06-07-2020 22:50:00 13.4 C 8.95 g/m*3 13.4 C 4.8 km/h
Sensor: Nr:Datum:Temp:Abs-Feuchte:Windchill:Wind:
Aussen-T/F 276 06-07-2020 22:55:00 13.3 C 8.9 g/m*3 13.3 C 4.8 km/h
277 06-07-2020 23:00:00 13.3 C 9.01 g/m*3 13.3 C 4.8 km/h
278 06-07-2020 23:05:00 13.3 C 9.01 g/m*3 13.3 C 4.8 km/h
279 06-07-2020 23:10:00 13.2 C 8.96 g/m*3 13.2 C 1.6 km/h
280 06-07-2020 23:15:00 13.2 C 8.96 g/m*3 13.2 C 0 km/h
281 06-07-2020 23:20:00 13.1 C 8.9 g/m*3 13.1 C 4.8 km/h
282 06-07-2020 23:25:00 13.1 C 8.9 g/m*3 13.1 C 4.8 km/h
283 06-07-2020 23:30:00 13 C 8.96 g/m*3 13 C 4.8 km/h
284 06-07-2020 23:35:00 12.9 C 8.9 g/m*3 12.9 C 4.8 km/h
285 06-07-2020 23:40:00 12.8 C 8.85 g/m*3 12.8 C 3.2 km/h
286 06-07-2020 23:45:00 12.8 C 8.96 g/m*3 12.8 C 4.8 km/h
287 06-07-2020 23:50:00 12.7 C 8.91 g/m*3 12.7 C 0 km/h
288 06-07-2020 23:55:00 12.7 C 9.02 g/m*3 12.7 C 0 km/h
289 07-07-2020 00:00:00 12.6 C 8.96 g/m*3 12.6 C 0 km/h
290 07-07-2020 00:05:00 12.4 C 8.85 g/m*3 12.4 C 1.6 km/h
291 07-07-2020 00:10:00 12.3 C 8.9 g/m*3 12.3 C 0 km/h
292 07-07-2020 00:15:00 12.2 C 8.96 g/m*3 12.2 C 0 km/h
293 07-07-2020 00:20:00 12.1 C 8.9 g/m*3 12.1 C 4.8 km/h
294 07-07-2020 00:25:00 12 C 8.85 g/m*3 12 C 4.8 km/h
295 07-07-2020 00:30:00 11.9 C 8.9 g/m*3 11.9 C 0 km/h
296 07-07-2020 00:35:00 11.8 C 8.84 g/m*3 11.8 C 0 km/h
297 07-07-2020 00:40:00 11.7 C 8.79 g/m*3 11.7 C 1.6 km/h
298 07-07-2020 00:45:00 11.6 C 8.83 g/m*3 11.6 C 4.8 km/h
299 07-07-2020 00:50:00 11.5 C 8.78 g/m*3 11.5 C 0 km/h
300 07-07-2020 00:55:00 11.4 C 8.83 g/m*3 11.4 C 0 km/h
Sensor: Nr:Datum:Temp:Abs-Feuchte:Windchill:Wind:
Aussen-T/F 301 07-07-2020 01:00:00 11.3 C 8.77 g/m*3 11.3 C 3.2 km/h
302 07-07-2020 01:05:00 11.3 C 8.77 g/m*3 11.3 C 0 km/h
303 07-07-2020 01:10:00 11.2 C 8.72 g/m*3 11.2 C 0 km/h
304 07-07-2020 01:15:00 11.1 C 8.66 g/m*3 11.1 C 0 km/h
305 07-07-2020 01:20:00 11.1 C 8.76 g/m*3 11.1 C 4.8 km/h
306 07-07-2020 01:25:00 11.1 C 8.76 g/m*3 11.1 C 1.6 km/h
307 07-07-2020 01:30:00 11.1 C 8.76 g/m*3 11.1 C 0 km/h
308 07-07-2020 01:35:00 11 C 8.71 g/m*3 11 C 1.6 km/h
309 07-07-2020 01:40:00 10.9 C 8.65 g/m*3 10.9 C 0 km/h
310 07-07-2020 01:45:00 10.9 C 8.75 g/m*3 10.9 C 0 km/h
311 07-07-2020 01:50:00 10.9 C 8.75 g/m*3 10.9 C 0 km/h
312 07-07-2020 01:55:00 10.8 C 8.7 g/m*3 10.8 C 0 km/h
313 07-07-2020 02:00:00 10.8 C 8.7 g/m*3 10.8 C 1.6 km/h
314 07-07-2020 02:05:00 10.7 C 8.64 g/m*3 10.7 C 0 km/h
315 07-07-2020 02:10:00 10.7 C 8.74 g/m*3 10.7 C 1.6 km/h
316 07-07-2020 02:15:00 10.6 C 8.69 g/m*3 10.6 C 0 km/h
317 07-07-2020 02:20:00 10.5 C 8.63 g/m*3 10.5 C 0 km/h
318 07-07-2020 02:25:00 10.4 C 8.58 g/m*3 10.4 C 1.6 km/h
319 07-07-2020 02:30:00 10.3 C 8.52 g/m*3 10.3 C 0 km/h
320 07-07-2020 02:35:00 10.3 C 8.52 g/m*3 10.3 C 3.2 km/h
321 07-07-2020 02:40:00 10.2 C 8.56 g/m*3 10.2 C 1.6 km/h
322 07-07-2020 02:45:00 10.2 C 8.56 g/m*3 10.2 C 0 km/h
323 07-07-2020 02:50:00 10.2 C 8.56 g/m*3 10.2 C 3.2 km/h
324 07-07-2020 02:55:00 10.2 C 8.66 g/m*3 10.2 C 4.8 km/h
325 07-07-2020 03:00:00 10.3 C 8.71 g/m*3 10.3 C 0 km/h
Sensor: Nr:Datum:Temp:Abs-Feuchte:Windchill:Wind:
Aussen-T/F 326 07-07-2020 03:05:00 10.3 C 8.71 g/m*3 10.3 C 3.2 km/h
327 07-07-2020 03:10:00 10.3 C 8.71 g/m*3 10.3 C 0 km/h
328 07-07-2020 03:15:00 10.2 C 8.66 g/m*3 10.2 C 0 km/h
329 07-07-2020 03:20:00 10.1 C 8.61 g/m*3 10.1 C 1.6 km/h
330 07-07-2020 03:25:00 10.1 C 8.61 g/m*3 10.1 C 1.6 km/h
331 07-07-2020 03:30:00 9.9 C 8.5 g/m*3 9.9 C 3.2 km/h
332 07-07-2020 03:35:00 9.9 C 8.5 g/m*3 9.9 C 1.6 km/h
333 07-07-2020 03:40:00 9.8 C 8.44 g/m*3 9.8 C 1.6 km/h
334 07-07-2020 03:45:00 9.8 C 8.44 g/m*3 9.8 C 1.6 km/h
335 07-07-2020 03:50:00 9.8 C 8.54 g/m*3 9.8 C 0 km/h
336 07-07-2020 03:55:00 9.8 C 8.54 g/m*3 9.8 C 1.6 km/h
337 07-07-2020 04:00:00 9.8 C 8.54 g/m*3 9.8 C 3.2 km/h
338 07-07-2020 04:05:00 9.8 C 8.54 g/m*3 9.8 C 1.6 km/h
339 07-07-2020 04:10:00 9.8 C 8.54 g/m*3 9.8 C 1.6 km/h
340 07-07-2020 04:15:00 9.8 C 8.54 g/m*3 9.8 C 0 km/h
341 07-07-2020 04:20:00 9.7 C 8.48 g/m*3 9.7 C 3.2 km/h
342 07-07-2020 04:25:00 9.7 C 8.48 g/m*3 9.7 C 1.6 km/h
343 07-07-2020 04:30:00 9.6 C 8.43 g/m*3 9.6 C 0 km/h
344 07-07-2020 04:35:00 9.5 C 8.37 g/m*3 9.5 C 1.6 km/h
345 07-07-2020 04:40:00 9.4 C 8.32 g/m*3 9.4 C 0 km/h
346 07-07-2020 04:45:00 9.3 C 8.27 g/m*3 9.3 C 1.6 km/h
347 07-07-2020 04:50:00 9.3 C 8.27 g/m*3 9.3 C 1.6 km/h
348 07-07-2020 04:55:00 9.2 C 8.22 g/m*3 9.2 C 0 km/h
349 07-07-2020 05:00:00 9.2 C 8.22 g/m*3 9.2 C 0 km/h
350 07-07-2020 05:05:00 9.1 C 8.16 g/m*3 9.1 C 3.2 km/h
Sensor: Nr:Datum:Temp:Abs-Feuchte:Windchill:Wind:
Aussen-T/F 351 07-07-2020 05:10:00 9.1 C 8.16 g/m*3 9.1 C 3.2 km/h
352 07-07-2020 05:15:00 9 C 8.11 g/m*3 9 C 1.6 km/h
353 07-07-2020 05:20:00 8.9 C 8.06 g/m*3 8.9 C 0 km/h
354 07-07-2020 05:25:00 8.8 C 8.01 g/m*3 8.8 C 0 km/h
355 07-07-2020 05:30:00 8.8 C 8.09 g/m*3 8.8 C 4.8 km/h
356 07-07-2020 05:35:00 8.8 C 8.09 g/m*3 8.8 C 3.2 km/h
357 07-07-2020 05:40:00 8.8 C 8.09 g/m*3 8.8 C 1.6 km/h
358 07-07-2020 05:45:00 8.8 C 8.09 g/m*3 8.8 C 1.6 km/h
359 07-07-2020 05:50:00 8.7 C 8.04 g/m*3 8.7 C 0 km/h
360 07-07-2020 05:55:00 8.7 C 8.04 g/m*3 8.7 C 0 km/h
361 07-07-2020 06:00:00 8.7 C 8.04 g/m*3 8.7 C 0 km/h
362 07-07-2020 06:05:00 8.6 C 7.99 g/m*3 8.6 C 0 km/h
363 07-07-2020 06:10:00 8.6 C 7.99 g/m*3 8.6 C 4.8 km/h
364 07-07-2020 06:15:00 8.6 C 7.99 g/m*3 8.6 C 0 km/h
365 07-07-2020 06:20:00 8.5 C 7.94 g/m*3 8.5 C 0 km/h
366 07-07-2020 06:25:00 8.5 C 7.94 g/m*3 8.5 C 1.6 km/h
367 07-07-2020 06:30:00 8.6 C 7.99 g/m*3 8.6 C 1.6 km/h
368 07-07-2020 06:35:00 8.6 C 7.99 g/m*3 8.6 C 0 km/h
369 07-07-2020 06:40:00 8.6 C 8.08 g/m*3 8.6 C 1.6 km/h
370 07-07-2020 06:45:00 8.7 C 8.13 g/m*3 8.7 C 1.6 km/h
371 07-07-2020 06:50:00 8.7 C 8.13 g/m*3 8.7 C 0 km/h
372 07-07-2020 06:55:00 8.7 C 8.13 g/m*3 8.7 C 1.6 km/h
373 07-07-2020 07:00:00 8.7 C 8.13 g/m*3 8.7 C 3.2 km/h
374 07-07-2020 07:05:00 8.8 C 8.18 g/m*3 8.8 C 4.8 km/h
375 07-07-2020 07:10:00 9 C 8.29 g/m*3 9 C 3.2 km/h
Sensor: Nr:Datum:Temp:Abs-Feuchte:Windchill:Wind:
Aussen-T/F 376 07-07-2020 07:15:00 9.1 C 8.34 g/m*3 9.1 C 4.8 km/h
377 07-07-2020 07:20:00 9.2 C 8.39 g/m*3 8.45 C 6.4 km/h
378 07-07-2020 07:25:00 9.3 C 8.45 g/m*3 8.56 C 6.4 km/h
379 07-07-2020 07:30:00 9.4 C 8.5 g/m*3 9.4 C 4.8 km/h
380 07-07-2020 07:35:00 9.6 C 8.61 g/m*3 9.6 C 4.8 km/h
381 07-07-2020 07:40:00 9.7 C 8.57 g/m*3 9.7 C 4.8 km/h
382 07-07-2020 07:45:00 9.8 C 8.63 g/m*3 9.14 C 6.4 km/h
383 07-07-2020 07:50:00 9.8 C 8.63 g/m*3 9.8 C 0 km/h
384 07-07-2020 07:55:00 9.9 C 8.68 g/m*3 9.9 C 1.6 km/h
385 07-07-2020 08:00:00 10 C 8.74 g/m*3 10 C 1.6 km/h
386 07-07-2020 08:05:00 10 C 8.74 g/m*3 10 C 1.6 km/h
387 07-07-2020 08:10:00 10.1 C 8.79 g/m*3 10.1 C 1.6 km/h
388 07-07-2020 08:15:00 10.1 C 8.79 g/m*3 10.1 C 1.6 km/h
389 07-07-2020 08:20:00 10.2 C 8.85 g/m*3 10.2 C 3.2 km/h
390 07-07-2020 08:25:00 10.3 C 8.91 g/m*3 10.3 C 1.6 km/h
391 07-07-2020 08:30:00 10.5 C 9.02 g/m*3 10.5 C 3.2 km/h
392 07-07-2020 08:35:00 10.7 C 9.13 g/m*3 10.7 C 1.6 km/h
393 07-07-2020 08:40:00 10.8 C 9.19 g/m*3 10.8 C 1.6 km/h
394 07-07-2020 08:45:00 10.9 C 9.25 g/m*3 10.9 C 0 km/h
395 07-07-2020 08:50:00 11 C 9.31 g/m*3 11 C 0 km/h
396 07-07-2020 08:55:00 11.1 C 9.37 g/m*3 11.1 C 0 km/h
397 07-07-2020 09:00:00 11.3 C 9.49 g/m*3 11.3 C 0 km/h
398 07-07-2020 09:05:00 11.4 C 9.55 g/m*3 11.4 C 0 km/h
399 07-07-2020 09:10:00 11.6 C 9.67 g/m*3 11.6 C 0 km/h
400 07-07-2020 09:15:00 11.7 C 9.73 g/m*3 11.7 C 0 km/h
Sensor: Nr:Datum:Temp:Abs-Feuchte:Windchill:Wind:
Aussen-T/F 401 07-07-2020 09:20:00 11.9 C 9.85 g/m*3 11.9 C 0 km/h
402 07-07-2020 09:25:00 12.2 C 10.04 g/m*3 12.2 C 0 km/h
403 07-07-2020 09:30:00 12.4 C 10.16 g/m*3 12.4 C 0 km/h
404 07-07-2020 09:35:00 12.7 C 10.13 g/m*3 12.7 C 3.2 km/h
405 07-07-2020 09:40:00 12.9 C 10.03 g/m*3 12.9 C 1.6 km/h
406 07-07-2020 09:45:00 13.3 C 10.17 g/m*3 13.3 C 1.6 km/h
407 07-07-2020 09:50:00 13.6 C 10.12 g/m*3 13.6 C 0 km/h
408 07-07-2020 09:55:00 13.8 C 10.13 g/m*3 13.8 C 3.2 km/h
409 07-07-2020 10:00:00 13.9 C 10.07 g/m*3 13.9 C 0 km/h
410 07-07-2020 10:05:00 14.1 C 9.71 g/m*3 14.1 C 3.2 km/h
411 07-07-2020 10:10:00 14.4 C 9.52 g/m*3 14.4 C 3.2 km/h
412 07-07-2020 10:15:00 14.8 C 9.63 g/m*3 14.8 C 3.2 km/h
413 07-07-2020 10:20:00 15.2 C 9.48 g/m*3 15.2 C 4.8 km/h
414 07-07-2020 10:25:00 15.7 C 9.5 g/m*3 15.7 C 6.4 km/h
415 07-07-2020 10:30:00 16.2 C 9.79 g/m*3 16.2 C 4.8 km/h
416 07-07-2020 10:35:00 16.6 C 9.61 g/m*3 16.6 C 4.8 km/h
417 07-07-2020 10:40:00 17 C 9.69 g/m*3 17 C 3.2 km/h
418 07-07-2020 10:45:00 17.3 C 9.58 g/m*3 17.3 C 4.8 km/h
419 07-07-2020 10:50:00 17.6 C 9.45 g/m*3 17.6 C 6.4 km/h
420 07-07-2020 10:55:00 17.7 C 9.35 g/m*3 17.7 C 0 km/h
421 07-07-2020 11:00:00 17.7 C 9.2 g/m*3 17.7 C 3.2 km/h
422 07-07-2020 11:05:00 17.8 C 8.8 g/m*3 17.8 C 6.4 km/h
423 07-07-2020 11:10:00 17.9 C 9.01 g/m*3 17.9 C 3.2 km/h
424 07-07-2020 11:15:00 18.1 C 9.43 g/m*3 18.1 C 0 km/h
425 07-07-2020 11:20:00 18.2 C 9.01 g/m*3 18.2 C 8.1 km/h
Sensor: Nr:Datum:Temp:Abs-Feuchte:Windchill:Wind:
Aussen-T/F 426 07-07-2020 11:25:00 18.4 C 8.34 g/m*3 18.4 C 8.1 km/h
427 07-07-2020 11:30:00 18.4 C 8.34 g/m*3 18.4 C 8.1 km/h
428 07-07-2020 11:35:00 18.4 C 8.18 g/m*3 18.4 C 6.4 km/h
429 07-07-2020 11:40:00 18.4 C 8.18 g/m*3 18.4 C 1.6 km/h
430 07-07-2020 11:45:00 18.6 C 8.28 g/m*3 18.6 C 9.7 km/h
431 07-07-2020 11:50:00 18.6 C 7.96 g/m*3 18.6 C 9.7 km/h
432 07-07-2020 11:55:00 18.8 C 8.05 g/m*3 18.8 C 6.4 km/h
433 07-07-2020 12:00:00 19.2 C 7.91 g/m*3 19.2 C 3.2 km/h
434 07-07-2020 12:05:00 19.5 C 7.72 g/m*3 19.5 C 9.7 km/h
435 07-07-2020 12:10:00 19.6 C 8.1 g/m*3 19.6 C 3.2 km/h
436 07-07-2020 12:15:00 19.6 C 8.1 g/m*3 19.6 C 9.7 km/h
437 07-07-2020 12:20:00 19.4 C 8.01 g/m*3 19.4 C 4.8 km/h
438 07-07-2020 12:25:00 19.4 C 8.18 g/m*3 19.4 C 4.8 km/h
439 07-07-2020 12:30:00 19.7 C 8.15 g/m*3 19.7 C 8.1 km/h
440 07-07-2020 12:35:00 20 C 8.3 g/m*3 20 C 8.1 km/h
441 07-07-2020 12:40:00 20 C 8.47 g/m*3 20 C 12.9 km/h
442 07-07-2020 12:45:00 19.9 C 8.08 g/m*3 19.9 C 12.9 km/h
443 07-07-2020 12:50:00 19.8 C 8.2 g/m*3 19.8 C 11.3 km/h
444 07-07-2020 12:55:00 19.8 C 8.37 g/m*3 19.8 C 4.8 km/h
445 07-07-2020 13:00:00 19.8 C 7.69 g/m*3 19.8 C 11.3 km/h
446 07-07-2020 13:05:00 19.8 C 8.03 g/m*3 19.8 C 6.4 km/h
447 07-07-2020 13:10:00 19.7 C 7.98 g/m*3 19.7 C 4.8 km/h
448 07-07-2020 13:15:00 19.6 C 8.1 g/m*3 19.6 C 6.4 km/h
449 07-07-2020 13:20:00 19.6 C 8.27 g/m*3 19.6 C 9.7 km/h
450 07-07-2020 13:25:00 19.6 C 7.93 g/m*3 19.6 C 0 km/h
Sensor: Nr:Datum:Temp:Abs-Feuchte:Windchill:Wind:
Aussen-T/F 451 07-07-2020 13:30:00 19.8 C 8.03 g/m*3 19.8 C 0 km/h
452 07-07-2020 13:35:00 19.9 C 7.73 g/m*3 19.9 C 0 km/h
453 07-07-2020 13:40:00 20.2 C 8.04 g/m*3 20.2 C 0 km/h
454 07-07-2020 13:45:00 20.3 C 8.09 g/m*3 20.3 C 9.7 km/h
455 07-07-2020 13:50:00 20.4 C 7.96 g/m*3 20.4 C 8.1 km/h
456 07-07-2020 13:55:00 20.3 C 7.91 g/m*3 20.3 C 16.1 km/h
457 07-07-2020 14:00:00 20.2 C 8.04 g/m*3 20.2 C 9.7 km/h
458 07-07-2020 14:05:00 20.2 C 8.22 g/m*3 20.2 C 8.1 km/h
459 07-07-2020 14:10:00 20.2 C 8.39 g/m*3 20.2 C 6.4 km/h
460 07-07-2020 14:15:00 20.2 C 8.39 g/m*3 20.2 C 6.4 km/h
461 07-07-2020 14:20:00 20.3 C 8.44 g/m*3 20.3 C 4.8 km/h
462 07-07-2020 14:25:00 20.4 C 8.31 g/m*3 20.4 C 9.7 km/h
463 07-07-2020 14:30:00 20.6 C 8.41 g/m*3 20.6 C 8.1 km/h
464 07-07-2020 14:35:00 20.6 C 8.59 g/m*3 20.6 C 1.6 km/h
465 07-07-2020 14:40:00 20.6 C 8.77 g/m*3 20.6 C 6.4 km/h
466 07-07-2020 14:45:00 20.6 C 8.23 g/m*3 20.6 C 11.3 km/h
467 07-07-2020 14:50:00 20.9 C 8.56 g/m*3 20.9 C 4.8 km/h
468 07-07-2020 14:55:00 21.3 C 8.76 g/m*3 21.3 C 14.5 km/h
469 07-07-2020 15:00:00 21.6 C 8.72 g/m*3 21.6 C 11.3 km/h
470 07-07-2020 15:05:00 21.6 C 8.53 g/m*3 21.6 C 11.3 km/h
471 07-07-2020 15:10:00 21.7 C 8.97 g/m*3 21.7 C 11.3 km/h
472 07-07-2020 15:15:00 21.6 C 8.53 g/m*3 21.6 C 12.9 km/h
473 07-07-2020 15:20:00 21.6 C 8.53 g/m*3 21.6 C 4.8 km/h
474 07-07-2020 15:25:00 21.6 C 8.53 g/m*3 21.6 C 11.3 km/h
475 07-07-2020 15:30:00 21.9 C 9.07 g/m*3 21.9 C 11.3 km/h
Sensor: Nr:Datum:Temp:Abs-Feuchte:Windchill:Wind:
Aussen-T/F 476 07-07-2020 15:35:00 22.1 C 8.78 g/m*3 22.1 C 11.3 km/h
477 07-07-2020 15:40:00 22.2 C 8.83 g/m*3 22.2 C 11.3 km/h
478 07-07-2020 15:45:00 22.3 C 8.89 g/m*3 22.3 C 8.1 km/h
479 07-07-2020 15:50:00 22.2 C 8.64 g/m*3 22.2 C 12.9 km/h
480 07-07-2020 15:55:00 22.1 C 9.17 g/m*3 22.1 C 14.5 km/h
481 07-07-2020 16:00:00 22.6 C 9.04 g/m*3 22.6 C 11.3 km/h
482 07-07-2020 16:05:00 22.8 C 8.74 g/m*3 22.8 C 8.1 km/h
483 07-07-2020 16:10:00 23.1 C 9.1 g/m*3 23.1 C 12.9 km/h
484 07-07-2020 16:15:00 23.3 C 8.78 g/m*3 23.3 C 11.3 km/h
485 07-07-2020 16:20:00 23.6 C 8.51 g/m*3 23.6 C 8.1 km/h
486 07-07-2020 16:25:00 23.5 C 8.67 g/m*3 23.5 C 8.1 km/h
487 07-07-2020 16:30:00 23.5 C 9.09 g/m*3 23.5 C 9.7 km/h
488 07-07-2020 16:35:00 23.4 C 8.62 g/m*3 23.4 C 9.7 km/h
489 07-07-2020 16:40:00 23.2 C 8.32 g/m*3 23.2 C 8.1 km/h
490 07-07-2020 16:45:00 23.4 C 8.83 g/m*3 23.4 C 11.3 km/h
491 07-07-2020 16:50:00 23.9 C 8.87 g/m*3 23.9 C 19.3 km/h
492 07-07-2020 16:55:00 24.1 C 8.97 g/m*3 24.1 C 16.1 km/h
493 07-07-2020 17:00:00 24 C 8.7 g/m*3 24 C 16.1 km/h
494 07-07-2020 17:05:00 23.8 C 8.82 g/m*3 23.8 C 6.4 km/h
495 07-07-2020 17:10:00 23.5 C 8.67 g/m*3 23.5 C 11.3 km/h
496 07-07-2020 17:15:00 23.2 C 8.52 g/m*3 23.2 C 12.9 km/h
497 07-07-2020 17:20:00 22.8 C 8.53 g/m*3 22.8 C 9.7 km/h
498 07-07-2020 17:25:00 22.5 C 8.59 g/m*3 22.5 C 6.4 km/h
499 07-07-2020 17:30:00 22.3 C 8.69 g/m*3 22.3 C 11.3 km/h
500 07-07-2020 17:35:00 22.2 C 8.64 g/m*3 22.2 C 11.3 km/h
Sensor: Nr:Datum:Temp:Abs-Feuchte:Windchill:Wind:
Aussen-T/F 501 07-07-2020 17:40:00 22.1 C 8.39 g/m*3 22.1 C 12.9 km/h
502 07-07-2020 17:45:00 22.1 C 8.78 g/m*3 22.1 C 3.2 km/h
503 07-07-2020 17:50:00 22.3 C 8.49 g/m*3 22.3 C 9.7 km/h
504 07-07-2020 17:55:00 22.4 C 8.74 g/m*3 22.4 C 11.3 km/h
505 07-07-2020 18:00:00 22.6 C 8.84 g/m*3 22.6 C 11.3 km/h
506 07-07-2020 18:05:00 23.2 C 8.94 g/m*3 23.2 C 9.7 km/h
507 07-07-2020 18:10:00 24.1 C 8.97 g/m*3 24.1 C 6.4 km/h
508 07-07-2020 18:15:00 24.4 C 9.12 g/m*3 24.4 C 9.7 km/h
509 07-07-2020 18:20:00 24.3 C 8.85 g/m*3 24.3 C 11.3 km/h
510 07-07-2020 18:25:00 24.3 C 8.63 g/m*3 24.3 C 6.4 km/h
511 07-07-2020 18:30:00 24.1 C 8.53 g/m*3 24.1 C 8.1 km/h
512 07-07-2020 18:35:00 23.7 C 8.77 g/m*3 23.7 C 8.1 km/h
513 07-07-2020 18:40:00 23.9 C 8.65 g/m*3 23.9 C 6.4 km/h
514 07-07-2020 18:45:00 24.2 C 8.58 g/m*3 24.2 C 11.3 km/h
515 07-07-2020 18:50:00 23.7 C 8.13 g/m*3 23.7 C 9.7 km/h
516 07-07-2020 18:55:00 23.1 C 8.48 g/m*3 23.1 C 9.7 km/h
517 07-07-2020 19:00:00 22.7 C 8.49 g/m*3 22.7 C 9.7 km/h
518 07-07-2020 19:05:00 22.7 C 8.49 g/m*3 22.7 C 11.3 km/h
519 07-07-2020 19:10:00 22.4 C 8.54 g/m*3 22.4 C 6.4 km/h
520 07-07-2020 19:15:00 22.2 C 8.64 g/m*3 22.2 C 9.7 km/h
521 07-07-2020 19:20:00 22.2 C 8.64 g/m*3 22.2 C 6.4 km/h
522 07-07-2020 19:25:00 22.2 C 8.44 g/m*3 22.2 C 8.1 km/h
523 07-07-2020 19:30:00 22.1 C 8.98 g/m*3 22.1 C 6.4 km/h
524 07-07-2020 19:35:00 21.9 C 8.3 g/m*3 21.9 C 8.1 km/h
525 07-07-2020 19:40:00 21.8 C 8.44 g/m*3 21.8 C 8.1 km/h
Sensor: Nr:Datum:Temp:Abs-Feuchte:Windchill:Wind:
Aussen-T/F 526 07-07-2020 19:45:00 21.7 C 8.58 g/m*3 21.7 C 9.7 km/h
527 07-07-2020 19:50:00 21.6 C 8.53 g/m*3 21.6 C 4.8 km/h
528 07-07-2020 19:55:00 21.5 C 8.3 g/m*3 21.5 C 8.1 km/h
529 07-07-2020 20:00:00 21.5 C 8.3 g/m*3 21.5 C 6.4 km/h
530 07-07-2020 20:05:00 21.5 C 8.49 g/m*3 21.5 C 4.8 km/h
531 07-07-2020 20:10:00 21.4 C 8.25 g/m*3 21.4 C 16.1 km/h
532 07-07-2020 20:15:00 21.3 C 8.57 g/m*3 21.3 C 6.4 km/h
533 07-07-2020 20:20:00 21.3 C 8.76 g/m*3 21.3 C 6.4 km/h
534 07-07-2020 20:25:00 21.2 C 8.9 g/m*3 21.2 C 0 km/h
535 07-07-2020 20:30:00 21.1 C 9.03 g/m*3 21.1 C 4.8 km/h
536 07-07-2020 20:35:00 21 C 8.98 g/m*3 21 C 1.6 km/h
537 07-07-2020 20:40:00 20.8 C 9.05 g/m*3 20.8 C 0 km/h
538 07-07-2020 20:45:00 20.8 C 9.23 g/m*3 20.8 C 1.6 km/h
539 07-07-2020 20:50:00 20.7 C 9.9 g/m*3 20.7 C 0 km/h
540 07-07-2020 20:55:00 20.6 C 9.66 g/m*3 20.6 C 0 km/h
541 07-07-2020 21:00:00 20.4 C 9.02 g/m*3 20.4 C 4.8 km/h
542 07-07-2020 21:05:00 20.3 C 9.32 g/m*3 20.3 C 0 km/h
543 07-07-2020 21:10:00 20.2 C 9.79 g/m*3 20.2 C 0 km/h
544 07-07-2020 21:15:00 20.1 C 9.39 g/m*3 20.1 C 3.2 km/h
545 07-07-2020 21:20:00 20 C 9.33 g/m*3 20 C 4.8 km/h
546 07-07-2020 21:25:00 19.9 C 9.97 g/m*3 19.9 C 0 km/h
547 07-07-2020 21:30:00 19.8 C 9.39 g/m*3 19.8 C 0 km/h
548 07-07-2020 21:35:00 19.8 C 9.91 g/m*3 19.8 C 0 km/h
549 07-07-2020 21:40:00 19.6 C 9.79 g/m*3 19.6 C 0 km/h
550 07-07-2020 21:45:00 19.3 C 9.95 g/m*3 19.3 C 0 km/h
Sensor: Nr:Datum:Temp:Abs-Feuchte:Windchill:Wind:
Aussen-T/F 551 07-07-2020 21:50:00 19.1 C 10 g/m*3 19.1 C 0 km/h
552 07-07-2020 21:55:00 18.7 C 9.77 g/m*3 18.7 C 0 km/h
553 07-07-2020 22:00:00 18.3 C 9.69 g/m*3 18.3 C 0 km/h
554 07-07-2020 22:05:00 18.1 C 9.73 g/m*3 18.1 C 4.8 km/h
555 07-07-2020 22:10:00 17.8 C 9.56 g/m*3 17.8 C 4.8 km/h
556 07-07-2020 22:15:00 17.7 C 9.66 g/m*3 17.7 C 0 km/h
557 07-07-2020 22:20:00 17.7 C 9.66 g/m*3 17.7 C 1.6 km/h
558 07-07-2020 22:25:00 17.6 C 9.6 g/m*3 17.6 C 4.8 km/h
559 07-07-2020 22:30:00 17.5 C 9.69 g/m*3 17.5 C 4.8 km/h
560 07-07-2020 22:35:00 17.4 C 9.63 g/m*3 17.4 C 6.4 km/h
561 07-07-2020 22:40:00 17.3 C 9.58 g/m*3 17.3 C 3.2 km/h
562 07-07-2020 22:45:00 17.3 C 9.58 g/m*3 17.3 C 4.8 km/h
563 07-07-2020 22:50:00 17.3 C 9.72 g/m*3 17.3 C 1.6 km/h
564 07-07-2020 22:55:00 17.2 C 9.67 g/m*3 17.2 C 0 km/h
565 07-07-2020 23:00:00 17.2 C 9.67 g/m*3 17.2 C 4.8 km/h
566 07-07-2020 23:05:00 17.1 C 9.75 g/m*3 17.1 C 4.8 km/h
567 07-07-2020 23:10:00 17.1 C 9.75 g/m*3 17.1 C 4.8 km/h
568 07-07-2020 23:15:00 17.1 C 9.75 g/m*3 17.1 C 3.2 km/h
569 07-07-2020 23:20:00 17 C 9.69 g/m*3 17 C 3.2 km/h
570 07-07-2020 23:25:00 17 C 9.84 g/m*3 17 C 4.8 km/h
571 07-07-2020 23:30:00 16.9 C 9.78 g/m*3 16.9 C 4.8 km/h
572 07-07-2020 23:35:00 16.9 C 9.78 g/m*3 16.9 C 4.8 km/h
573 07-07-2020 23:40:00 16.9 C 9.78 g/m*3 16.9 C 4.8 km/h
574 07-07-2020 23:45:00 16.9 C 9.78 g/m*3 16.9 C 3.2 km/h
575 07-07-2020 23:50:00 16.8 C 9.87 g/m*3 16.8 C 0 km/h
Sensor: Nr:Datum:Temp:Abs-Feuchte:Windchill:Wind:
Aussen-T/F 576 07-07-2020 23:55:00 16.8 C 9.87 g/m*3 16.8 C 4.8 km/h
577 08-07-2020 00:00:00 16.7 C 9.81 g/m*3 16.7 C 4.8 km/h
578 08-07-2020 00:05:00 16.7 C 9.95 g/m*3 16.7 C 0 km/h
579 08-07-2020 00:10:00 16.6 C 10.03 g/m*3 16.6 C 0 km/h
580 08-07-2020 00:15:00 16.6 C 10.03 g/m*3 16.6 C 0 km/h
581 08-07-2020 00:20:00 16.4 C 10.05 g/m*3 16.4 C 0 km/h
582 08-07-2020 00:25:00 16.4 C 9.91 g/m*3 16.4 C 0 km/h
583 08-07-2020 00:30:00 16.3 C 10.13 g/m*3 16.3 C 0 km/h
584 08-07-2020 00:35:00 16.2 C 10.07 g/m*3 16.2 C 0 km/h
585 08-07-2020 00:40:00 16.1 C 10.01 g/m*3 16.1 C 0 km/h
586 08-07-2020 00:45:00 16 C 9.95 g/m*3 16 C 3.2 km/h
587 08-07-2020 00:50:00 15.9 C 9.89 g/m*3 15.9 C 0 km/h
588 08-07-2020 00:55:00 15.9 C 10.02 g/m*3 15.9 C 0 km/h
589 08-07-2020 01:00:00 15.8 C 9.96 g/m*3 15.8 C 0 km/h
590 08-07-2020 01:05:00 15.8 C 9.96 g/m*3 15.8 C 0 km/h
591 08-07-2020 01:10:00 15.8 C 9.96 g/m*3 15.8 C 0 km/h
592 08-07-2020 01:15:00 15.8 C 9.96 g/m*3 15.8 C 0 km/h
593 08-07-2020 01:20:00 15.8 C 9.96 g/m*3 15.8 C 0 km/h
594 08-07-2020 01:25:00 15.8 C 9.96 g/m*3 15.8 C 0 km/h
595 08-07-2020 01:30:00 15.8 C 10.1 g/m*3 15.8 C 0 km/h
596 08-07-2020 01:35:00 15.8 C 10.1 g/m*3 15.8 C 0 km/h
597 08-07-2020 01:40:00 15.8 C 10.1 g/m*3 15.8 C 1.6 km/h
598 08-07-2020 01:45:00 15.8 C 10.1 g/m*3 15.8 C 0 km/h
599 08-07-2020 01:50:00 15.8 C 10.1 g/m*3 15.8 C 0 km/h
600 08-07-2020 01:55:00 15.8 C 10.1 g/m*3 15.8 C 0 km/h
Sensor: Nr:Datum:Temp:Abs-Feuchte:Windchill:Wind:
Aussen-T/F 601 08-07-2020 02:00:00 15.8 C 10.23 g/m*3 15.8 C 0 km/h
602 08-07-2020 02:05:00 15.8 C 9.83 g/m*3 15.8 C 1.6 km/h
603 08-07-2020 02:10:00 15.8 C 9.96 g/m*3 15.8 C 0 km/h
604 08-07-2020 02:15:00 15.8 C 9.96 g/m*3 15.8 C 0 km/h
605 08-07-2020 02:20:00 15.9 C 9.89 g/m*3 15.9 C 1.6 km/h
606 08-07-2020 02:25:00 15.9 C 10.02 g/m*3 15.9 C 0 km/h
607 08-07-2020 02:30:00 15.9 C 9.89 g/m*3 15.9 C 0 km/h
608 08-07-2020 02:35:00 15.9 C 9.89 g/m*3 15.9 C 0 km/h
609 08-07-2020 02:40:00 15.9 C 9.89 g/m*3 15.9 C 0 km/h
610 08-07-2020 02:45:00 16 C 9.81 g/m*3 16 C 1.6 km/h
611 08-07-2020 02:50:00 16 C 9.81 g/m*3 16 C 0 km/h
612 08-07-2020 02:55:00 16.1 C 9.73 g/m*3 16.1 C 0 km/h
613 08-07-2020 03:00:00 16.1 C 9.73 g/m*3 16.1 C 0 km/h
614 08-07-2020 03:05:00 16.2 C 9.79 g/m*3 16.2 C 0 km/h
615 08-07-2020 03:10:00 16.2 C 9.79 g/m*3 16.2 C 0 km/h
616 08-07-2020 03:15:00 16.2 C 9.79 g/m*3 16.2 C 0 km/h
617 08-07-2020 03:20:00 16.2 C 9.79 g/m*3 16.2 C 0 km/h
618 08-07-2020 03:25:00 16.2 C 9.65 g/m*3 16.2 C 0 km/h
619 08-07-2020 03:30:00 16.3 C 9.57 g/m*3 16.3 C 0 km/h
620 08-07-2020 03:35:00 16.4 C 9.49 g/m*3 16.4 C 6.4 km/h
621 08-07-2020 03:40:00 16.4 C 9.63 g/m*3 16.4 C 0 km/h
622 08-07-2020 03:45:00 16.5 C 9.69 g/m*3 16.5 C 4.8 km/h
623 08-07-2020 03:50:00 16.5 C 9.69 g/m*3 16.5 C 6.4 km/h
624 08-07-2020 03:55:00 16.6 C 9.61 g/m*3 16.6 C 8.1 km/h
625 08-07-2020 04:00:00 16.6 C 9.75 g/m*3 16.6 C 3.2 km/h
Sensor: Nr:Datum:Temp:Abs-Feuchte:Windchill:Wind:
Aussen-T/F 626 08-07-2020 04:05:00 16.5 C 9.69 g/m*3 16.5 C 3.2 km/h
627 08-07-2020 04:10:00 16.4 C 9.49 g/m*3 16.4 C 4.8 km/h
628 08-07-2020 04:15:00 16.4 C 9.63 g/m*3 16.4 C 0 km/h
629 08-07-2020 04:20:00 16.4 C 9.63 g/m*3 16.4 C 0 km/h
630 08-07-2020 04:25:00 16.4 C 9.63 g/m*3 16.4 C 0 km/h
631 08-07-2020 04:30:00 16.4 C 9.63 g/m*3 16.4 C 1.6 km/h
632 08-07-2020 04:35:00 16.4 C 9.63 g/m*3 16.4 C 0 km/h
633 08-07-2020 04:40:00 16.4 C 9.77 g/m*3 16.4 C 0 km/h
634 08-07-2020 04:45:00 16.4 C 9.91 g/m*3 16.4 C 0 km/h
635 08-07-2020 04:50:00 16.3 C 9.85 g/m*3 16.3 C 0 km/h
636 08-07-2020 04:55:00 16.3 C 9.99 g/m*3 16.3 C 0 km/h
637 08-07-2020 05:00:00 16.2 C 9.93 g/m*3 16.2 C 0 km/h
638 08-07-2020 05:05:00 16.1 C 10.01 g/m*3 16.1 C 0 km/h
639 08-07-2020 05:10:00 16 C 9.95 g/m*3 16 C 0 km/h
640 08-07-2020 05:15:00 15.9 C 10.02 g/m*3 15.9 C 0 km/h
641 08-07-2020 05:20:00 15.9 C 10.16 g/m*3 15.9 C 0 km/h
642 08-07-2020 05:25:00 15.8 C 10.1 g/m*3 15.8 C 0 km/h
643 08-07-2020 05:30:00 15.8 C 10.23 g/m*3 15.8 C 0 km/h
644 08-07-2020 05:35:00 15.7 C 10.17 g/m*3 15.7 C 0 km/h
645 08-07-2020 05:40:00 15.7 C 10.3 g/m*3 15.7 C 0 km/h
646 08-07-2020 05:45:00 15.7 C 10.57 g/m*3 15.7 C 0 km/h
647 08-07-2020 05:50:00 15.6 C 10.37 g/m*3 15.6 C 0 km/h
648 08-07-2020 05:55:00 15.6 C 10.37 g/m*3 15.6 C 0 km/h
649 08-07-2020 06:00:00 15.5 C 10.44 g/m*3 15.5 C 0 km/h
650 08-07-2020 06:05:00 15.4 C 10.25 g/m*3 15.4 C 0 km/h
Sensor: Nr:Datum:Temp:Abs-Feuchte:Windchill:Wind:
Aussen-T/F 651 08-07-2020 06:10:00 15.4 C 10.25 g/m*3 15.4 C 0 km/h
652 08-07-2020 06:15:00 15.4 C 10.38 g/m*3 15.4 C 0 km/h
653 08-07-2020 06:20:00 15.4 C 10.51 g/m*3 15.4 C 0 km/h
654 08-07-2020 06:25:00 15.4 C 10.51 g/m*3 15.4 C 0 km/h
655 08-07-2020 06:30:00 15.4 C 10.51 g/m*3 15.4 C 0 km/h
656 08-07-2020 06:35:00 15.4 C 10.64 g/m*3 15.4 C 0 km/h
657 08-07-2020 06:40:00 15.4 C 10.64 g/m*3 15.4 C 0 km/h
658 08-07-2020 06:45:00 15.3 C 10.58 g/m*3 15.3 C 0 km/h
659 08-07-2020 06:50:00 15.3 C 10.71 g/m*3 15.3 C 0 km/h
660 08-07-2020 06:55:00 15.3 C 10.84 g/m*3 15.3 C 1.6 km/h
661 08-07-2020 07:00:00 15.4 C 11.04 g/m*3 15.4 C 0 km/h
662 08-07-2020 07:05:00 15.4 C 11.17 g/m*3 15.4 C 1.6 km/h
663 08-07-2020 07:10:00 15.3 C 11.23 g/m*3 15.3 C 0 km/h
664 08-07-2020 07:15:00 15.2 C 11.16 g/m*3 15.2 C 1.6 km/h
665 08-07-2020 07:20:00 15.1 C 11.09 g/m*3 15.1 C 0 km/h
666 08-07-2020 07:25:00 15.1 C 11.22 g/m*3 15.1 C 0 km/h
667 08-07-2020 07:30:00 15 C 11.16 g/m*3 15 C 0 km/h
668 08-07-2020 07:35:00 14.9 C 11.09 g/m*3 14.9 C 0 km/h
669 08-07-2020 07:40:00 14.8 C 11.02 g/m*3 14.8 C 0 km/h
670 08-07-2020 07:45:00 14.8 C 11.02 g/m*3 14.8 C 0 km/h
671 08-07-2020 07:50:00 14.8 C 11.15 g/m*3 14.8 C 0 km/h
672 08-07-2020 07:55:00 14.8 C 10.89 g/m*3 14.8 C 0 km/h
673 08-07-2020 08:00:00 14.7 C 10.7 g/m*3 14.7 C 0 km/h
674 08-07-2020 08:05:00 14.7 C 10.7 g/m*3 14.7 C 0 km/h
675 08-07-2020 08:10:00 14.7 C 10.2 g/m*3 14.7 C 6.4 km/h
Sensor: Nr:Datum:Temp:Abs-Feuchte:Windchill:Wind:
Aussen-T/F 676 08-07-2020 08:15:00 14.8 C 10.13 g/m*3 14.8 C 14.5 km/h
677 08-07-2020 08:20:00 14.8 C 10.13 g/m*3 14.8 C 14.5 km/h
678 08-07-2020 08:25:00 14.7 C 10.07 g/m*3 14.7 C 6.4 km/h
679 08-07-2020 08:30:00 14.6 C 10.01 g/m*3 14.6 C 8.1 km/h
680 08-07-2020 08:35:00 14.4 C 9.89 g/m*3 14.4 C 12.9 km/h
681 08-07-2020 08:40:00 14.4 C 10.01 g/m*3 14.4 C 3.2 km/h
682 08-07-2020 08:45:00 14.3 C 9.83 g/m*3 14.3 C 4.8 km/h
683 08-07-2020 08:50:00 14.3 C 9.95 g/m*3 14.3 C 1.6 km/h
684 08-07-2020 08:55:00 14.3 C 9.95 g/m*3 14.3 C 1.6 km/h
685 08-07-2020 09:00:00 14.3 C 10.07 g/m*3 14.3 C 3.2 km/h
686 08-07-2020 09:05:00 14.2 C 10.01 g/m*3 14.2 C 0 km/h
687 08-07-2020 09:10:00 14.2 C 10.14 g/m*3 14.2 C 6.4 km/h
688 08-07-2020 09:15:00 14.1 C 9.95 g/m*3 14.1 C 6.4 km/h
689 08-07-2020 09:20:00 14.1 C 10.07 g/m*3 14.1 C 8.1 km/h
690 08-07-2020 09:25:00 13.9 C 10.07 g/m*3 13.9 C 6.4 km/h
691 08-07-2020 09:30:00 13.8 C 10.01 g/m*3 13.8 C 3.2 km/h
692 08-07-2020 09:35:00 13.8 C 10.01 g/m*3 13.8 C 4.8 km/h
693 08-07-2020 09:40:00 13.8 C 10.13 g/m*3 13.8 C 4.8 km/h
694 08-07-2020 09:45:00 13.8 C 10.13 g/m*3 13.8 C 3.2 km/h
695 08-07-2020 09:50:00 13.8 C 10.13 g/m*3 13.8 C 3.2 km/h
696 08-07-2020 09:55:00 13.8 C 10.13 g/m*3 13.8 C 3.2 km/h
697 08-07-2020 10:00:00 13.9 C 10.43 g/m*3 13.9 C 0 km/h
698 08-07-2020 10:05:00 14 C 10.49 g/m*3 14 C 3.2 km/h
699 08-07-2020 10:10:00 14 C 10.49 g/m*3 14 C 4.8 km/h
700 08-07-2020 10:15:00 14 C 10.61 g/m*3 14 C 4.8 km/h
Sensor: Nr:Datum:Temp:Abs-Feuchte:Windchill:Wind:
Aussen-T/F 701 08-07-2020 10:20:00 13.9 C 10.67 g/m*3 13.9 C 1.6 km/h
702 08-07-2020 10:25:00 13.9 C 10.67 g/m*3 13.9 C 4.8 km/h
703 08-07-2020 10:30:00 13.8 C 10.6 g/m*3 13.8 C 1.6 km/h
704 08-07-2020 10:35:00 13.7 C 10.54 g/m*3 13.7 C 0 km/h
705 08-07-2020 10:40:00 13.7 C 10.66 g/m*3 13.7 C 1.6 km/h
706 08-07-2020 10:45:00 13.6 C 10.59 g/m*3 13.6 C 1.6 km/h
707 08-07-2020 10:50:00 13.7 C 10.78 g/m*3 13.7 C 3.2 km/h
708 08-07-2020 10:55:00 13.6 C 10.71 g/m*3 13.6 C 1.6 km/h
709 08-07-2020 11:00:00 13.6 C 10.71 g/m*3 13.6 C 0 km/h
710 08-07-2020 11:05:00 13.7 C 10.89 g/m*3 13.7 C 1.6 km/h
711 08-07-2020 11:10:00 13.7 C 10.89 g/m*3 13.7 C 0 km/h
712 08-07-2020 11:15:00 13.8 C 10.96 g/m*3 13.8 C 1.6 km/h
713 08-07-2020 11:20:00 13.8 C 11.08 g/m*3 13.8 C 0 km/h
714 08-07-2020 11:25:00 14 C 11.22 g/m*3 14 C 4.8 km/h
715 08-07-2020 11:30:00 14.2 C 11.36 g/m*3 14.2 C 4.8 km/h
716 08-07-2020 11:35:00 14.2 C 11.23 g/m*3 14.2 C 9.7 km/h
717 08-07-2020 11:40:00 14.4 C 11.5 g/m*3 14.4 C 6.4 km/h
718 08-07-2020 11:45:00 14.4 C 11.37 g/m*3 14.4 C 6.4 km/h
719 08-07-2020 11:50:00 14.4 C 11.37 g/m*3 14.4 C 3.2 km/h
720 08-07-2020 11:55:00 14.4 C 11.37 g/m*3 14.4 C 6.4 km/h
721 08-07-2020 12:00:00 14.4 C 11.37 g/m*3 14.4 C 3.2 km/h
722 08-07-2020 12:05:00 14.4 C 11.25 g/m*3 14.4 C 4.8 km/h
723 08-07-2020 12:10:00 14.4 C 11.25 g/m*3 14.4 C 1.6 km/h
724 08-07-2020 12:15:00 14.4 C 11.37 g/m*3 14.4 C 0 km/h
725 08-07-2020 12:20:00 14.6 C 11.51 g/m*3 14.6 C 0 km/h
Sensor: Nr:Datum:Temp:Abs-Feuchte:Windchill:Wind:
Aussen-T/F 726 08-07-2020 12:25:00 14.8 C 11.78 g/m*3 14.8 C 0 km/h
727 08-07-2020 12:30:00 14.8 C 11.65 g/m*3 14.8 C 3.2 km/h
728 08-07-2020 12:35:00 14.9 C 11.73 g/m*3 14.9 C 1.6 km/h
729 08-07-2020 12:40:00 14.9 C 11.73 g/m*3 14.9 C 4.8 km/h
730 08-07-2020 12:45:00 14.9 C 11.73 g/m*3 14.9 C 4.8 km/h
731 08-07-2020 12:50:00 14.9 C 11.73 g/m*3 14.9 C 4.8 km/h
732 08-07-2020 12:55:00 15 C 11.8 g/m*3 15 C 3.2 km/h
733 08-07-2020 13:00:00 15.1 C 11.87 g/m*3 15.1 C 3.2 km/h
734 08-07-2020 13:05:00 15 C 11.67 g/m*3 15 C 6.4 km/h
735 08-07-2020 13:10:00 15 C 11.8 g/m*3 15 C 4.8 km/h
736 08-07-2020 13:15:00 15.1 C 11.87 g/m*3 15.1 C 6.4 km/h
737 08-07-2020 13:20:00 15.1 C 11.87 g/m*3 15.1 C 4.8 km/h
738 08-07-2020 13:25:00 15.1 C 11.87 g/m*3 15.1 C 8.1 km/h
739 08-07-2020 13:30:00 15.1 C 11.87 g/m*3 15.1 C 4.8 km/h
740 08-07-2020 13:35:00 15.1 C 11.87 g/m*3 15.1 C 6.4 km/h
741 08-07-2020 13:40:00 15.2 C 11.94 g/m*3 15.2 C 4.8 km/h
742 08-07-2020 13:45:00 15.2 C 11.94 g/m*3 15.2 C 8.1 km/h
743 08-07-2020 13:50:00 15.2 C 12.07 g/m*3 15.2 C 6.4 km/h
744 08-07-2020 13:55:00 15.2 C 11.94 g/m*3 15.2 C 8.1 km/h
745 08-07-2020 14:00:00 15.2 C 12.07 g/m*3 15.2 C 6.4 km/h
746 08-07-2020 14:05:00 15.4 C 12.22 g/m*3 15.4 C 3.2 km/h
747 08-07-2020 14:10:00 15.5 C 12.29 g/m*3 15.5 C 4.8 km/h
748 08-07-2020 14:15:00 15.5 C 12.29 g/m*3 15.5 C 3.2 km/h
749 08-07-2020 14:20:00 15.6 C 12.37 g/m*3 15.6 C 4.8 km/h
750 08-07-2020 14:25:00 15.6 C 12.37 g/m*3 15.6 C 6.4 km/h
Sensor: Nr:Datum:Temp:Abs-Feuchte:Windchill:Wind:
Aussen-T/F 751 08-07-2020 14:30:00 15.6 C 12.37 g/m*3 15.6 C 1.6 km/h
752 08-07-2020 14:35:00 15.6 C 12.37 g/m*3 15.6 C 3.2 km/h
753 08-07-2020 14:40:00 15.6 C 12.5 g/m*3 15.6 C 3.2 km/h
754 08-07-2020 14:45:00 15.6 C 12.37 g/m*3 15.6 C 3.2 km/h
755 08-07-2020 14:50:00 15.7 C 12.58 g/m*3 15.7 C 3.2 km/h
756 08-07-2020 14:55:00 15.7 C 12.44 g/m*3 15.7 C 6.4 km/h
757 08-07-2020 15:00:00 15.7 C 12.58 g/m*3 15.7 C 6.4 km/h
758 08-07-2020 15:05:00 15.9 C 12.73 g/m*3 15.9 C 4.8 km/h
759 08-07-2020 15:10:00 16.2 C 13.1 g/m*3 16.2 C 4.8 km/h
760 08-07-2020 15:15:00 16.3 C 13.04 g/m*3 16.3 C 3.2 km/h
761 08-07-2020 15:20:00 16.3 C 13.04 g/m*3 16.3 C 4.8 km/h
762 08-07-2020 15:25:00 16.3 C 13.04 g/m*3 16.3 C 6.4 km/h
763 08-07-2020 15:30:00 16.2 C 12.82 g/m*3 16.2 C 9.7 km/h
764 08-07-2020 15:35:00 16.1 C 12.75 g/m*3 16.1 C 6.4 km/h
765 08-07-2020 15:40:00 16.1 C 12.75 g/m*3 16.1 C 4.8 km/h
766 08-07-2020 15:45:00 16.1 C 12.75 g/m*3 16.1 C 3.2 km/h
767 08-07-2020 15:50:00 16.2 C 12.82 g/m*3 16.2 C 4.8 km/h
768 08-07-2020 15:55:00 16.2 C 12.96 g/m*3 16.2 C 6.4 km/h
769 08-07-2020 16:00:00 16.3 C 13.04 g/m*3 16.3 C 1.6 km/h
770 08-07-2020 16:05:00 16.4 C 13.12 g/m*3 16.4 C 1.6 km/h
771 08-07-2020 16:10:00 16.4 C 13.12 g/m*3 16.4 C 3.2 km/h
772 08-07-2020 16:15:00 16.3 C 12.9 g/m*3 16.3 C 3.2 km/h
773 08-07-2020 16:20:00 16.4 C 13.12 g/m*3 16.4 C 0 km/h
774 08-07-2020 16:25:00 16.5 C 13.2 g/m*3 16.5 C 0 km/h
775 08-07-2020 16:30:00 16.6 C 13.28 g/m*3 16.6 C 0 km/h
Sensor: Nr:Datum:Temp:Abs-Feuchte:Windchill:Wind:
Aussen-T/F 776 08-07-2020 16:35:00 16.6 C 13.28 g/m*3 16.6 C 0 km/h
777 08-07-2020 16:40:00 16.7 C 13.36 g/m*3 16.7 C 0 km/h
778 08-07-2020 16:45:00 16.8 C 13.44 g/m*3 16.8 C 0 km/h
779 08-07-2020 16:50:00 16.8 C 13.44 g/m*3 16.8 C 0 km/h
780 08-07-2020 16:55:00 16.8 C 13.44 g/m*3 16.8 C 0 km/h
781 08-07-2020 17:00:00 16.9 C 13.52 g/m*3 16.9 C 0 km/h
782 08-07-2020 17:05:00 16.9 C 13.52 g/m*3 16.9 C 1.6 km/h
783 08-07-2020 17:10:00 17 C 13.6 g/m*3 17 C 8.1 km/h
784 08-07-2020 17:15:00 17.1 C 13.68 g/m*3 17.1 C 4.8 km/h
785 08-07-2020 17:20:00 17.1 C 13.68 g/m*3 17.1 C 3.2 km/h
786 08-07-2020 17:25:00 17.2 C 13.77 g/m*3 17.2 C 6.4 km/h
787 08-07-2020 17:30:00 17.3 C 13.7 g/m*3 17.3 C 9.7 km/h
788 08-07-2020 17:35:00 17.3 C 13.7 g/m*3 17.3 C 8.1 km/h
789 08-07-2020 17:40:00 17.6 C 13.95 g/m*3 17.6 C 3.2 km/h
790 08-07-2020 17:45:00 17.7 C 13.88 g/m*3 17.7 C 4.8 km/h
791 08-07-2020 17:50:00 17.8 C 13.96 g/m*3 17.8 C 9.7 km/h
792 08-07-2020 17:55:00 17.8 C 13.81 g/m*3 17.8 C 4.8 km/h
793 08-07-2020 18:00:00 17.9 C 13.89 g/m*3 17.9 C 3.2 km/h
794 08-07-2020 18:05:00 17.9 C 13.89 g/m*3 17.9 C 3.2 km/h
795 08-07-2020 18:10:00 18.1 C 13.91 g/m*3 18.1 C 3.2 km/h
796 08-07-2020 18:15:00 18.1 C 13.91 g/m*3 18.1 C 4.8 km/h
797 08-07-2020 18:20:00 18.1 C 13.91 g/m*3 18.1 C 1.6 km/h
798 08-07-2020 18:25:00 18.1 C 14.06 g/m*3 18.1 C 1.6 km/h
799 08-07-2020 18:30:00 18.1 C 13.91 g/m*3 18.1 C 4.8 km/h
800 08-07-2020 18:35:00 17.9 C 13.74 g/m*3 17.9 C 4.8 km/h
Sensor: Nr:Datum:Temp:Abs-Feuchte:Windchill:Wind:
Aussen-T/F 801 08-07-2020 18:40:00 17.8 C 13.81 g/m*3 17.8 C 1.6 km/h
802 08-07-2020 18:45:00 17.7 C 13.73 g/m*3 17.7 C 1.6 km/h
803 08-07-2020 18:50:00 17.6 C 13.65 g/m*3 17.6 C 0 km/h
804 08-07-2020 18:55:00 17.6 C 13.65 g/m*3 17.6 C 0 km/h
805 08-07-2020 19:00:00 17.6 C 13.8 g/m*3 17.6 C 1.6 km/h
806 08-07-2020 19:05:00 17.4 C 13.63 g/m*3 17.4 C 3.2 km/h
807 08-07-2020 19:10:00 17.4 C 13.63 g/m*3 17.4 C 1.6 km/h
808 08-07-2020 19:15:00 17.4 C 13.63 g/m*3 17.4 C 0 km/h
809 08-07-2020 19:20:00 17.4 C 13.78 g/m*3 17.4 C 0 km/h
810 08-07-2020 19:25:00 17.4 C 13.78 g/m*3 17.4 C 0 km/h
811 08-07-2020 19:30:00 17.3 C 13.7 g/m*3 17.3 C 0 km/h
812 08-07-2020 19:35:00 17.3 C 13.7 g/m*3 17.3 C 0 km/h
813 08-07-2020 19:40:00 17.3 C 13.7 g/m*3 17.3 C 0 km/h
814 08-07-2020 19:45:00 17.3 C 13.7 g/m*3 17.3 C 0 km/h
815 08-07-2020 19:50:00 17.3 C 13.7 g/m*3 17.3 C 0 km/h
816 08-07-2020 19:55:00 17.3 C 13.7 g/m*3 17.3 C 1.6 km/h
817 08-07-2020 20:00:00 17.3 C 13.7 g/m*3 17.3 C 0 km/h
818 08-07-2020 20:05:00 17.3 C 13.7 g/m*3 17.3 C 0 km/h
819 08-07-2020 20:10:00 17.3 C 13.7 g/m*3 17.3 C 0 km/h
820 08-07-2020 20:15:00 17.3 C 13.7 g/m*3 17.3 C 0 km/h
821 08-07-2020 20:20:00 17.3 C 13.7 g/m*3 17.3 C 0 km/h
822 08-07-2020 20:25:00 17.3 C 13.7 g/m*3 17.3 C 0 km/h
823 08-07-2020 20:30:00 17.3 C 13.7 g/m*3 17.3 C 0 km/h
824 08-07-2020 20:35:00 17.2 C 13.62 g/m*3 17.2 C 0 km/h
825 08-07-2020 20:40:00 17.2 C 13.62 g/m*3 17.2 C 0 km/h
Sensor: Nr:Datum:Temp:Abs-Feuchte:Windchill:Wind:
Aussen-T/F 826 08-07-2020 20:45:00 17.2 C 13.62 g/m*3 17.2 C 0 km/h
827 08-07-2020 20:50:00 17.1 C 13.54 g/m*3 17.1 C 0 km/h
828 08-07-2020 20:55:00 17.1 C 13.54 g/m*3 17.1 C 0 km/h
829 08-07-2020 21:00:00 17.1 C 13.68 g/m*3 17.1 C 0 km/h
830 08-07-2020 21:05:00 17.1 C 13.68 g/m*3 17.1 C 0 km/h
831 08-07-2020 21:10:00 17 C 13.6 g/m*3 17 C 0 km/h
832 08-07-2020 21:15:00 16.9 C 13.38 g/m*3 16.9 C 0 km/h
833 08-07-2020 21:20:00 16.9 C 13.52 g/m*3 16.9 C 0 km/h
834 08-07-2020 21:25:00 16.9 C 13.52 g/m*3 16.9 C 0 km/h
835 08-07-2020 21:30:00 16.8 C 13.44 g/m*3 16.8 C 0 km/h
836 08-07-2020 21:35:00 16.8 C 13.44 g/m*3 16.8 C 0 km/h
837 08-07-2020 21:40:00 16.8 C 13.44 g/m*3 16.8 C 0 km/h
838 08-07-2020 21:45:00 16.7 C 13.36 g/m*3 16.7 C 0 km/h
839 08-07-2020 21:50:00 16.7 C 13.36 g/m*3 16.7 C 0 km/h
840 08-07-2020 21:55:00 16.7 C 13.36 g/m*3 16.7 C 0 km/h
841 08-07-2020 22:00:00 16.7 C 13.36 g/m*3 16.7 C 0 km/h
842 08-07-2020 22:05:00 16.6 C 13.28 g/m*3 16.6 C 0 km/h
843 08-07-2020 22:10:00 16.6 C 13.28 g/m*3 16.6 C 0 km/h
844 08-07-2020 22:15:00 16.6 C 13.28 g/m*3 16.6 C 0 km/h
845 08-07-2020 22:20:00 16.6 C 13.28 g/m*3 16.6 C 0 km/h
846 08-07-2020 22:25:00 16.6 C 13.28 g/m*3 16.6 C 1.6 km/h
847 08-07-2020 22:30:00 16.5 C 13.2 g/m*3 16.5 C 0 km/h
848 08-07-2020 22:35:00 16.5 C 13.34 g/m*3 16.5 C 0 km/h
849 08-07-2020 22:40:00 16.4 C 13.26 g/m*3 16.4 C 1.6 km/h
850 08-07-2020 22:45:00 16.4 C 13.26 g/m*3 16.4 C 0 km/h
Sensor: Nr:Datum:Temp:Abs-Feuchte:Windchill:Wind:
Aussen-T/F 851 08-07-2020 22:50:00 16.4 C 13.26 g/m*3 16.4 C 4.8 km/h
852 08-07-2020 22:55:00 16.4 C 13.26 g/m*3 16.4 C 3.2 km/h
853 08-07-2020 23:00:00 16.4 C 13.26 g/m*3 16.4 C 3.2 km/h
854 08-07-2020 23:05:00 16.4 C 13.26 g/m*3 16.4 C 3.2 km/h
855 08-07-2020 23:10:00 16.4 C 13.26 g/m*3 16.4 C 3.2 km/h
856 08-07-2020 23:15:00 16.3 C 13.18 g/m*3 16.3 C 1.6 km/h
857 08-07-2020 23:20:00 16.3 C 13.18 g/m*3 16.3 C 0 km/h
858 08-07-2020 23:25:00 16.3 C 13.18 g/m*3 16.3 C 1.6 km/h
859 08-07-2020 23:30:00 16.3 C 13.18 g/m*3 16.3 C 3.2 km/h
860 08-07-2020 23:35:00 16.4 C 13.26 g/m*3 16.4 C 3.2 km/h
861 08-07-2020 23:40:00 16.4 C 13.26 g/m*3 16.4 C 1.6 km/h
862 08-07-2020 23:45:00 16.4 C 13.26 g/m*3 16.4 C 3.2 km/h
863 08-07-2020 23:50:00 16.4 C 13.26 g/m*3 16.4 C 4.8 km/h
864 08-07-2020 23:55:00 16.4 C 13.26 g/m*3 16.4 C 3.2 km/h

Legende:
   Min
   Max


Maximal/Minimal-Werte vom 06.07.2020 - 08.07.2020

Sensor Min Max Avg
Temp
(Aussen-T/F)
8.5 °C
07-07-2020  06:20:00
24.4 °C
07-07-2020  18:15:00
16.26 °C
Abs-Feuchte
(Aussen-T/F)
7.3 g/m*3
06-07-2020  15:10:00
14.09 g/m*3
06-07-2020  00:10:00
9.93 g/m*3
Windchill
(Aussen-T/F)
8.45 C
07-07-2020  07:20:00
24.4 C
07-07-2020  18:15:00
16.24 C

Die Daten stammen von einer Davis Vantage Pro 2 Wetter-Station und werden unter Linux mit der Software wview2wettercgi und aufbereitet. Alle Angaben erfolgen ohne Gewähr für ihre Vollständigkeit oder Richtigkeit.
Kontakt: Rainer Krienke krienke@uni-koblenz.de . Meine Webseiten an der Uni Koblenz oder privat.
Version: $Revision: 0.78 $